createdAt,value
2019-02-26T00:09:22.616Z,52.23
2019-02-26T00:39:27.497Z,48.95
2019-02-26T01:09:34.031Z,45.05
2019-02-26T01:39:38.342Z,56.65
2019-02-26T02:09:46.558Z,55.78
2019-02-26T02:39:48.705Z,57.45
2019-02-26T03:09:52.420Z,65.52
2019-02-26T03:39:57.409Z,67.92
2019-02-26T04:10:01.448Z,67.65
2019-02-26T04:40:14.228Z,68.25
2019-02-26T05:10:18.031Z,73.90
2019-02-26T05:40:22.323Z,74.65
2019-02-26T06:10:27.171Z,69.55
2019-02-26T06:40:34.485Z,71.40
2019-02-26T07:10:36.860Z,72.92
2019-02-26T07:40:40.569Z,73.10
2019-02-26T08:10:45.364Z,77.03
2019-02-26T08:40:49.653Z,82.95
2019-02-26T09:10:53.369Z,80.72
2019-02-26T09:40:57.269Z,81.82
2019-02-26T10:11:02.754Z,81.45
2019-02-26T10:41:06.453Z,84.70
2019-02-26T11:11:12.961Z,62.67
2019-02-26T11:41:15.865Z,57.27
2019-02-26T12:11:20.440Z,56.20
2019-02-26T12:41:24.962Z,57.17
2019-02-26T13:11:28.678Z,61.95
2019-02-26T13:41:38.733Z,39.38
2019-02-26T14:11:37.757Z,46.20
2019-02-26T14:41:41.473Z,40.08
2019-02-26T15:11:45.225Z,38.48
2019-02-26T15:41:50.576Z,38.20
2019-02-26T16:11:54.333Z,56.13
2019-02-26T16:41:58.106Z,82.88
2019-02-26T17:12:02.210Z,74.20
2019-02-26T17:42:05.914Z,143.85
2019-02-26T18:12:09.973Z,104.17
2019-02-26T18:42:15.592Z,99.90
2019-02-26T19:12:19.058Z,106.90
2019-02-26T19:42:22.750Z,107.25
2019-02-26T20:12:28.789Z,114.32
2019-02-26T20:42:32.962Z,130.30
2019-02-26T21:12:36.677Z,129.25
2019-02-26T21:42:40.369Z,127.78
2019-02-26T22:12:44.084Z,118.35
2019-02-26T22:42:48.336Z,136.15
2019-02-26T23:12:52.085Z,147.07
2019-02-26T23:42:55.834Z,155.50
